• Join FlightAware (Why Join?)
  • Login
  • US Flag 
04:40PM EST


 

Airport Tracker/Info


-or-


 

Live Flight TrackerFlight Track Log ✈ UAL1151 ✈ 08-Jul-2013 ✈ KSEA - KSFO

Flight Track Log - Related Links

Times and Time Zones

All times are in EDT time to prevent confusion due to time zone crossing. See the UAL1151 flight status page for this flight to view local times or setup timezone preferences in your user account.

Time Position Orientation Groundspeed Altitude Reporting Facility
EDT Latitude Longitude Course Direction KTS MPH feet Rate Location/Type
01:18AM 47.4706 -122.3070 North 173 199 1,300  Level FlightAware ADS-B
01:18AM 47.4774 -122.3070 360° North 175 201 1,600 1,500 Climbing FlightAware ADS-B
01:19AM 47.4832 -122.3070 360° North 188 216 1,700 1,320 Climbing FlightAware ADS-B
01:19AM 47.4974 -122.3070 360° North 207 238 2,100 1,860 Climbing FlightAware ADS-B
01:19AM 47.5020 -122.3070 360° North 213 245 2,300 3,000 Climbing FlightAware ADS-B
01:19AM 47.5120 -122.3080 356° North 217 250 2,800 3,420 Climbing FlightAware ADS-B
01:19AM 47.5270 -122.3090 357° North 209 241 3,800 3,600 Climbing FlightAware ADS-B
01:19AM 47.5365 -122.3090 360° North 216 249 4,300 2,580 Climbing FlightAware ADS-B
01:20AM 47.5439 -122.3100 355° North 223 257 4,500 1,620 Climbing FlightAware ADS-B
01:20AM 47.5475 -122.3100 360° North 226 260 4,600 2,220 Climbing FlightAware ADS-B
01:20AM 47.5519 -122.3120 343° North 232 267 4,800 2,520 Climbing FlightAware ADS-B
01:20AM 47.5557 -122.3130 350° North 239 275 4,900 840 Climbing FlightAware ADS-B
01:20AM 47.5597 -122.3150 341° North 245 282 4,900 1,500 Level FlightAware ADS-B
01:20AM 47.5634 -122.3180 331° Northwest 252 290 5,100 3,000 Climbing FlightAware ADS-B
01:20AM 47.5695 -122.3240 326° Northwest 255 293 5,400 2,820 Climbing FlightAware ADS-B
01:20AM 47.5824 -122.3380 324° Northwest 261 300 6,000 2,880 Climbing FlightAware ADS-B
01:20AM 47.5945 -122.3510 324° Northwest 267 307 6,600 3,180 Climbing FlightAware ADS-B
01:20AM 47.5975 -122.3540 326° Northwest 270 311 6,800 3,000 Climbing FlightAware ADS-B
01:21AM 47.6003 -122.3580 316° Northwest 272 313 6,900 2,220 Climbing FlightAware ADS-B
01:21AM 47.6038 -122.3630 316° Northwest 275 316 7,100 3,000 Climbing FlightAware ADS-B
01:21AM 47.6066 -122.3690 305° West 278 320 7,300 3,960 Climbing FlightAware ADS-B
01:21AM 47.6085 -122.3740 299° West 280 322 7,500 2,520 Climbing FlightAware ADS-B
01:21AM 47.6103 -122.3800 294° West 283 326 7,600 1,680 Climbing FlightAware ADS-B
01:21AM 47.6115 -122.3860 287° West 287 330 7,700 1,980 Climbing FlightAware ADS-B
01:21AM 47.6124 -122.3920 283° West 290 334 7,800 3,000 Climbing FlightAware ADS-B
01:21AM 47.6132 -122.3990 280° West 291 335 8,000 3,120 Climbing FlightAware ADS-B
01:21AM 47.6164 -122.4290 279° West 295 339 8,800 3,000 Climbing FlightAware ADS-B
01:21AM 47.6173 -122.4410 276° West 294 338 9,100 3,600 Climbing FlightAware ADS-B
01:21AM 47.6172 -122.4500 269° West 294 338 9,400 3,720 Climbing FlightAware ADS-B
01:21AM 47.6165 -122.4570 262° West 292 336 9,600 3,300 Climbing FlightAware ADS-B
01:22AM 47.6147 -122.4670 255° West 291 335 9,900 3,300 Climbing FlightAware ADS-B
01:22AM 47.6129 -122.4740 249° West 290 334 10,100 3,000 Climbing FlightAware ADS-B
01:22AM 47.6105 -122.4810 243° Southwest 293 337 10,300 1,980 Climbing FlightAware ADS-B
01:22AM 47.6065 -122.4900 237° Southwest 298 343 10,400 1,200 Climbing FlightAware ADS-B
01:22AM 47.5963 -122.5070 228° Southwest 318 366 10,600 1,980 Climbing FlightAware ADS-B
01:22AM 47.5579 -122.5650 226° Southwest 344 396 11,900 2,520 Climbing FlightAware ADS-B
01:23AM 47.5238 -122.6160 225° Southwest 348 400 13,400 2,820 Climbing FlightAware ADS-B
01:24AM 47.4898 -122.6680 226° Southwest 354 407 14,800 2,760 Climbing FlightAware ADS-B
01:24AM 47.4552 -122.7200 225° Southwest 358 412 16,200 2,700 Climbing FlightAware ADS-B
01:25AM 47.4196 -122.7750 226° Southwest 362 417 17,600 2,520 Climbing FlightAware ADS-B
01:25AM 47.3840 -122.8280 225° Southwest 369 425 18,800 2,280 Climbing FlightAware ADS-B
01:26AM 47.3479 -122.8830 226° Southwest 376 433 19,900 2,160 Climbing FlightAware ADS-B
01:26AM 47.3109 -122.9390 226° Southwest 383 441 21,000 2,220 Climbing FlightAware ADS-B
01:27AM 47.2734 -122.9960 226° Southwest 385 443 22,200 2,160 Climbing FlightAware ADS-B
01:27AM 47.2538 -123.0250 225° Southwest 389 448 22,700 1,980 Climbing FlightAware ADS-B
01:27AM 47.2374 -123.0460 221° Southwest 392 451 23,100 1,920 Climbing FlightAware ADS-B
01:28AM 47.1924 -123.0960 217° Southwest 399 459 24,100 1,740 Climbing FlightAware ADS-B
01:28AM 47.1466 -123.1460 217° Southwest 405 466 24,900 1,560 Climbing FlightAware ADS-B
01:29AM 47.1009 -123.1960 217° Southwest 412 474 25,700 1,560 Climbing FlightAware ADS-B
01:29AM 47.0539 -123.2460 216° Southwest 418 481 26,500 1,560 Climbing FlightAware ADS-B
01:30AM 47.0070 -123.2970 217° Southwest 423 487 27,300 1,440 Climbing FlightAware ADS-B
01:30AM 46.9588 -123.3490 216° Southwest 428 493 28,000 1,320 Climbing FlightAware ADS-B
01:30AM 46.9432 -123.3650 215° Southwest 430 495 28,200 1,320 Climbing FlightAware ADS-B
01:30AM 46.9277 -123.3780 210° Southwest 433 498 28,400 1,380 Climbing FlightAware ADS-B
01:30AM 46.9141 -123.3870 204° Southwest 436 502 28,600 1,260 Climbing FlightAware ADS-B
01:31AM 46.9009 -123.3930 197° South 439 505 28,700 1,500 Climbing FlightAware ADS-B
01:31AM 46.8892 -123.3970 193° South 441 507 28,900 1,620 Climbing FlightAware ADS-B
01:31AM 46.8788 -123.3990 187° South 444 511 29,000 960 Climbing FlightAware ADS-B
01:31AM 46.8648 -123.4000 183° South 446 513 29,100 1,380 Climbing FlightAware ADS-B
01:31AM 46.8003 -123.3990 179° South 450 518 29,900 1,680 Climbing FlightAware ADS-B
01:32AM 46.7350 -123.3960 178° South 445 512 30,900 1,800 Climbing FlightAware ADS-B
01:32AM 46.6727 -123.3940 179° South 441 507 31,800 1,560 Climbing FlightAware ADS-B
01:33AM 46.6108 -123.3920 179° South 440 506 32,500 1,380 Climbing FlightAware ADS-B
01:33AM 46.5455 -123.3900 179° South 439 505 33,300 1,380 Climbing FlightAware ADS-B
01:34AM 46.4828 -123.3880 179° South 436 502 34,000 1,320 Climbing FlightAware ADS-B
01:34AM 46.4221 -123.3860 179° South 434 499 34,700 900 Climbing FlightAware ADS-B
01:35AM 46.3555 -123.3840 179° South 434 499 35,000 240 Climbing FlightAware ADS-B
01:36AM 46.2946 -123.3820 179° South 433 498 35,000  Level FlightAware ADS-B
01:36AM 46.2097 -123.3800 179° South 432 497 35,000  Level FlightAware ADS-B
01:37AM 46.1502 -123.3780 179° South 430 495 35,000  Level FlightAware ADS-B
01:37AM 46.0903 -123.3760 179° South 428 493 35,000  Level FlightAware ADS-B
01:38AM 46.0305 -123.3740 179° South 426 490 35,000  Level FlightAware ADS-B
01:38AM 45.9702 -123.3720 179° South 425 489 35,000  Level FlightAware ADS-B
01:39AM 45.9108 -123.3710 179° South 424 488 35,000  Level FlightAware ADS-B
01:39AM 45.8519 -123.3690 179° South 423 487 35,000  Level FlightAware ADS-B
01:40AM 45.7677 -123.3660 179° South 423 487 35,000  Level FlightAware ADS-B
01:41AM 45.7084 -123.3640 179° South 423 487 35,000  Level FlightAware ADS-B
01:41AM 45.6491 -123.3630 179° South 426 490 35,000  Level FlightAware ADS-B
01:42AM 45.5820 -123.3610 179° South 428 493 35,000  Level FlightAware ADS-B
01:42AM 45.5218 -123.3590 179° South 428 493 35,000  Level FlightAware ADS-B
01:43AM 45.4586 -123.3570 179° South 427 491 35,000  Level FlightAware ADS-B
01:43AM 45.3985 -123.3550 179° South 426 490 35,000  Level FlightAware ADS-B
01:44AM 45.3391 -123.3530 179° South 425 489 35,000  Level FlightAware ADS-B
01:44AM 45.2773 -123.3520 179° South 424 488 35,000  Level FlightAware ADS-B
01:45AM 45.2053 -123.3500 179° South 422 486 35,000  Level FlightAware ADS-B
01:45AM 45.1344 -123.3470 178° South 421 484 35,000  Level FlightAware ADS-B
01:46AM 45.0360 -123.3450 179° South 419 482 35,000  Level FlightAware
01:46AM 45.0155 -123.3440 178° South 419 482 35,000  Level FlightAware ADS-B
01:47AM 44.9470 -123.3420 179° South 419 482 35,000  Level FlightAware
01:48AM 44.8516 -123.3390 179° South 419 482 35,000  Level FlightAware ADS-B
01:48AM 44.7896 -123.3370 179° South 420 483 35,000  Level FlightAware ADS-B
01:49AM 44.6870 -123.3340 179° South 420 483 35,000  Level FlightAware
01:50AM 44.6010 -123.3320 179° South 421 484 35,000  Level FlightAware
01:51AM 44.5110 -123.3290 179° South 421 484 35,000  Level FlightAware
01:51AM 44.4540 -123.3270 179° South 422 486 35,000  Level FlightAware
01:52AM 44.3660 -123.3240 179° South 422 486 35,000  Level FlightAware
01:53AM 44.2820 -123.3200 178° South 421 484 35,000  Level FlightAware
01:53AM 44.2180 -123.3180 179° South 421 484 35,000  Level FlightAware
01:54AM 44.1290 -123.3140 178° South 420 483 35,000  Level FlightAware
01:55AM 44.0520 -123.3110 178° South 419 482 35,000  Level FlightAware
01:55AM 43.9780 -123.3080 178° South 418 481 35,000  Level FlightAware
01:56AM 43.8910 -123.3050 179° South 417 480 35,000  Level FlightAware
01:57AM 43.8130 -123.3020 178° South 416 479 35,000  Level FlightAware
01:57AM 43.7340 -123.2980 178° South 416 479 35,000  Level FlightAware
01:58AM 43.6600 -123.2960 179° South 416 479 35,000  Level FlightAware
01:59AM 43.5810 -123.2930 178° South 415 478 35,000  Level FlightAware
01:59AM 43.5180 -123.2900 178° South 414 476 35,000  Level FlightAware
02:00AM 43.4510 -123.2870 178° South 413 475 35,000  Level FlightAware
02:01AM 43.3880 -123.2840 178° South 413 475 35,000  Level FlightAware
02:01AM 43.3290 -123.2820 179° South 413 475 35,000  Level FlightAware
02:02AM 43.2550 -123.2780 178° South 413 475 35,000  Level FlightAware
02:03AM 43.1930 -123.2750 178° South 413 475 35,000  Level FlightAware
02:04AM 43.1150 -123.2710 178° South 413 475 35,000  Level FlightAware
02:04AM 43.0550 -123.2690 179° South 413 475 35,000  Level FlightAware
02:05AM 42.9770 -123.2650 178° South 413 475 35,000  Level FlightAware
02:06AM 42.9200 -123.2620 178° South 413 475 35,000  Level FlightAware
02:06AM 42.8630 -123.2590 178° South 413 475 35,000  Level FlightAware
02:07AM 42.7790 -123.2550 178° South 413 475 35,000  Level FlightAware
02:08AM 42.7210 -123.2530 179° South 413 475 35,000  Level FlightAware
02:08AM 42.6410 -123.2490 178° South 413 475 35,000  Level FlightAware
02:09AM 42.5830 -123.2460 178° South 413 475 35,000  Level FlightAware
02:10AM 42.4850 -123.2410 178° South 413 475 35,000  Level FlightAware
02:16AM 41.6550 -123.2070 178° South 407 468 35,000  Level FlightAware
02:17AM 41.4970 -123.1910 176° South 407 468 35,000  Level FlightAware
02:18AM 41.4060 -123.1820 176° South 404 465 35,000  Level FlightAware
02:18AM 41.3280 -123.1750 176° South 403 464 35,000  Level FlightAware
02:19AM 41.2640 -123.1680 175° South 403 464 35,000  Level FlightAware
02:20AM 41.1870 -123.1610 176° South 404 465 35,000  Level FlightAware
02:20AM 41.1120 -123.1530 175° South 405 466 35,000  Level FlightAware
02:21AM 41.0340 -123.1460 176° South 406 467 35,000  Level FlightAware
02:22AM 40.9590 -123.1380 175° South 406 467 35,000  Level FlightAware
02:22AM 40.8810 -123.1310 176° South 405 466 35,000  Level FlightAware
02:23AM 40.7960 -123.1220 175° South 404 465 35,000  Level FlightAware
02:24AM 40.7210 -123.1150 176° South 403 464 35,000  Level FlightAware
02:24AM 40.6450 -123.1080 176° South 402 463 35,000  Level FlightAware
02:25AM 40.5600 -123.0990 175° South 401 461 35,000  Level FlightAware
02:26AM 40.4840 -123.0920 176° South 400 460 35,000  Level FlightAware
02:26AM 40.4190 -123.0860 176° South 407 468 35,000  Level FlightAware
02:27AM 40.3330 -123.0780 176° South 405 466 35,000  Level FlightAware
02:28AM 40.2580 -123.0700 175° South 404 465 35,000  Level FlightAware
02:28AM 40.1910 -123.0640 176° South 404 465 35,000  Level FlightAware
02:29AM 40.1080 -123.0560 176° South 405 466 35,000  Level FlightAware
02:31AM 39.9790 -123.0440 176° South 407 468 35,000  Level FlightAware
02:31AM 39.8720 -123.0340 176° South 409 471 35,000  Level FlightAware
02:32AM 39.7660 -123.0240 176° South 411 473 35,000  Level FlightAware
02:33AM 39.6980 -123.0170 175° South 413 475 35,000  Level FlightAware
02:34AM 39.6110 -123.0090 176° South 415 478 35,000  Level FlightAware
02:34AM 39.5220 -123.0010 176° South 415 478 35,000  Level FlightAware
02:35AM 39.4450 -122.9930 175° South 415 478 35,000  Level FlightAware
02:36AM 39.3620 -122.9860 176° South 415 478 35,000  Level FlightAware
02:36AM 39.2820 -122.9780 176° South 415 478 35,000  Level FlightAware
02:37AM 39.2120 -122.9720 176° South 415 478 35,000  Level FlightAware
02:38AM 39.1430 -122.9650 176° South 414 476 35,000  Level FlightAware
02:38AM 39.0550 -122.9570 176° South 413 475 35,000 -720 Level FlightAware
02:39AM 38.9740 -122.9500 176° South 410 472 34,000 -2,220 Descending FlightAware
02:40AM 38.8930 -122.9420 176° South 415 478 32,000 -2,820 Descending FlightAware
02:41AM 38.8140 -122.9350 176° South 414 476 30,100 -2,520 Descending FlightAware
02:41AM 38.7430 -122.9280 176° South 407 468 28,700 -2,160 Descending FlightAware
02:42AM 38.6630 -122.9210 176° South 397 457 27,200 -2,220 Descending FlightAware
02:43AM 38.5940 -122.9150 176° South 392 451 25,800 -2,220 Descending FlightAware
02:43AM 38.5220 -122.9080 176° South 385 443 24,400 -2,040 Descending FlightAware
02:44AM 38.4530 -122.9020 176° South 377 434 23,100 -2,040 Descending FlightAware
02:45AM 38.3820 -122.8950 176° South 370 426 21,700 -2,040 Descending FlightAware
02:45AM 38.3210 -122.8900 176° South 365 420 20,500 -1,980 Descending FlightAware
02:46AM 38.2470 -122.8830 176° South 358 412 19,100 -1,980 Descending FlightAware
02:47AM 38.1740 -122.8760 176° South 352 405 17,600 -1,980 Descending FlightAware
02:47AM 38.1080 -122.8860 187° South 349 402 16,300 -1,860 Descending FlightAware
02:48AM 38.0900 -122.9080 224° Southwest 348 400 15,900 -1,320 Descending FlightAware
02:48AM 38.0790 -122.9500 252° West 346 398 15,500 -1,020 Descending FlightAware
02:48AM 38.1000 -123.0130 293° West 362 417 15,000 -960 Descending FlightAware
02:49AM 38.1160 -123.0270 325° Northwest 363 418 14,800 -960 Descending FlightAware
02:49AM 38.1480 -123.0380 345° North 363 418 14,500 -1,020 Descending FlightAware
02:49AM 38.1940 -123.0200 17° North 354 407 14,000 -1,140 Descending FlightAware
02:50AM 38.2110 -122.9960 48° Northeast 350 403 13,700 -1,020 Descending FlightAware
02:50AM 38.2230 -122.9480 72° East 346 398 13,300 -960 Descending FlightAware
02:51AM 38.2120 -122.8980 106° East 337 388 12,900 -1,020 Descending FlightAware
02:51AM 38.1960 -122.8750 132° Southeast 335 386 12,600 -1,080 Descending FlightAware
02:51AM 38.1680 -122.8570 153° Southeast 333 383 12,300 -960 Descending FlightAware
02:52AM 38.1220 -122.8590 182° South 331 381 11,800 -1,020 Descending FlightAware
02:52AM 38.0600 -122.8460 171° South 329 379 11,100 -660 Descending FlightAware
02:53AM 38.0110 -122.7940 140° Southeast 300 345 10,900 -180 Descending FlightAware
02:54AM 37.9690 -122.7480 139° Southeast 283 326 10,900  Level FlightAware
02:55AM 37.9290 -122.7050 140° Southeast 279 321 10,900  Level FlightAware
02:55AM 37.8950 -122.6680 139° Southeast 251 289 10,900  Level FlightAware
02:56AM 37.8560 -122.6260 140° Southeast 246 283 10,900  Level FlightAware
02:57AM 37.8230 -122.5910 140° Southeast 246 283 10,900  Level FlightAware
02:57AM 37.7880 -122.5540 140° Southeast 246 283 10,900  Level FlightAware
02:58AM 37.7450 -122.5070 139° Southeast 246 283 10,900  Level FlightAware
02:58AM 37.7343 -122.4960 141° Southeast 247 284 10,900  Level FlightAware ADS-B
02:59AM 37.7073 -122.4680 141° Southeast 246 283 10,900  Level FlightAware ADS-B
02:59AM 37.6752 -122.4330 139° Southeast 247 284 10,900  Level FlightAware ADS-B
03:00AM 37.6491 -122.4050 140° Southeast 246 283 10,900  Level FlightAware ADS-B
03:00AM 37.6298 -122.3850 141° Southeast 247 284 10,900  Level FlightAware ADS-B
03:00AM 37.6177 -122.3750 147° Southeast 246 283 10,900 -660 Level FlightAware ADS-B
03:01AM 37.5812 -122.3530 154° Southeast 246 283 10,400 -960 Descending FlightAware ADS-B
03:01AM 37.5564 -122.3390 156° South 244 281 10,000 -1,080 Descending FlightAware ADS-B
03:02AM 37.5401 -122.3290 154° Southeast 242 278 9,700 -1,020 Descending FlightAware ADS-B
03:02AM 37.5247 -122.3200 155° Southeast 241 277 9,500 -1,020 Descending FlightAware ADS-B
03:02AM 37.5095 -122.3100 152° Southeast 240 276 9,200 -1,200 Descending FlightAware ADS-B
03:02AM 37.4940 -122.3010 155° Southeast 238 274 8,900 -1,020 Descending FlightAware ADS-B
03:03AM 37.4788 -122.2920 155° Southeast 232 267 8,700 -1,200 Descending FlightAware ADS-B
03:03AM 37.4596 -122.2800 154° Southeast 234 269 8,200 -1,380 Descending FlightAware ADS-B
03:03AM 37.4436 -122.2700 154° Southeast 226 260 7,900 -780 Descending FlightAware ADS-B
03:04AM 37.4300 -122.2610 152° Southeast 213 245 7,800 -660 Descending FlightAware ADS-B
03:04AM 37.4123 -122.2490 152° Southeast 203 234 7,500 -1,020 Descending FlightAware ADS-B
03:04AM 37.4100 -122.2460 134° Southeast 203 234 7,400 -1,020 Descending FlightAware ADS-B
03:04AM 37.4080 -122.2440 142° Southeast 203 234 7,400 -900 Level FlightAware ADS-B
03:04AM 37.4059 -122.2400 123° Southeast 204 235 7,300 -780 Descending FlightAware ADS-B
03:04AM 37.4043 -122.2360 117° Southeast 205 236 7,300 -720 Level FlightAware ADS-B
03:04AM 37.4028 -122.2300 107° East 207 238 7,200 -1,500 Descending FlightAware ADS-B
03:04AM 37.4024 -122.2270 100° East 208 239 7,100 -1,740 Descending FlightAware ADS-B
03:04AM 37.4024 -122.2210 90° East 210 242 7,000 -1,380 Descending FlightAware ADS-B
03:04AM 37.4028 -122.2160 84° East 211 243 6,900 -1,140 Descending FlightAware ADS-B
03:05AM 37.4036 -122.2080 83° East 211 243 6,800 -1,200 Descending FlightAware ADS-B
03:05AM 37.4057 -122.1900 82° East 212 244 6,500 -1,200 Descending FlightAware ADS-B
03:05AM 37.4080 -122.1710 81° East 211 243 6,200 -1,200 Descending FlightAware ADS-B
03:05AM 37.4101 -122.1530 82° East 209 241 5,900 -1,200 Descending FlightAware ADS-B
03:05AM 37.4115 -122.1410 82° East 207 238 5,700 -960 Descending FlightAware ADS-B
03:06AM 37.4123 -122.1360 79° East 207 238 5,700 -900 Level FlightAware ADS-B
03:06AM 37.4133 -122.1330 67° East 206 237 5,600 -780 Descending FlightAware ADS-B
03:06AM 37.4150 -122.1280 67° East 206 237 5,600 -900 Level FlightAware ADS-B
03:06AM 37.4167 -122.1250 54° Northeast 206 237 5,500 -2,040 Descending FlightAware ADS-B
03:06AM 37.4188 -122.1220 49° Northeast 207 238 5,400 -1,020 Descending FlightAware ADS-B
03:06AM 37.4214 -122.1200 31° Northeast 208 239 5,400 -900 Level FlightAware ADS-B
03:06AM 37.4239 -122.1170 44° Northeast 209 241 5,300 -1,500 Descending FlightAware ADS-B
03:06AM 37.4274 -122.1150 24° Northeast 210 242 5,200 -1,320 Descending FlightAware ADS-B
03:06AM 37.4410 -122.1080 22° Northeast 210 242 4,900 -1,440 Descending FlightAware ADS-B
03:07AM 37.4619 -122.0970 23° Northeast 210 242 4,300 -1,500 Descending FlightAware ADS-B
03:07AM 37.4667 -122.0950 18° North 210 242 4,200 -960 Descending FlightAware ADS-B
03:07AM 37.4736 -122.0960 353° North 207 238 4,100 -1,020 Descending FlightAware ADS-B
03:07AM 37.4773 -122.0970 348° North 204 235 4,000 -900 Descending FlightAware ADS-B
03:07AM 37.4801 -122.0980 344° North 203 234 4,000 -360 Level FlightAware ADS-B
03:07AM 37.4933 -122.1050 337° Northwest 198 228 3,900 -240 Descending FlightAware ADS-B
03:07AM 37.5066 -122.1130 334° Northwest 199 229 3,900  Level FlightAware ADS-B
03:08AM 37.5199 -122.1200 337° Northwest 200 230 3,900  Level FlightAware ADS-B
03:08AM 37.5327 -122.1270 337° Northwest 199 229 3,900  Level FlightAware ADS-B
03:08AM 37.5376 -122.1300 334° Northwest 197 227 3,900  Level FlightAware ADS-B
03:08AM 37.5408 -122.1320 334° Northwest 195 224 3,900 -780 Level FlightAware ADS-B
03:08AM 37.5433 -122.1350 316° Northwest 192 221 3,800 -1,740 Descending FlightAware ADS-B
03:08AM 37.5452 -122.1370 320° Northwest 191 220 3,700 -1,740 Descending FlightAware ADS-B
03:08AM 37.5475 -122.1410 306° West 189 217 3,600 -1,500 Descending FlightAware ADS-B
03:08AM 37.5492 -122.1450 298° West 190 219 3,500 -780 Descending FlightAware ADS-B
03:08AM 37.5502 -122.1490 288° West 188 216 3,500 -900 Level FlightAware ADS-B
03:08AM 37.5509 -122.1520 286° West 188 216 3,400 -1,020 Descending FlightAware ADS-B
03:09AM 37.5539 -122.1680 283° West 183 211 3,200 -1,020 Descending FlightAware ADS-B
03:09AM 37.5572 -122.1840 285° West 179 206 2,900 -960 Descending FlightAware ADS-B
03:09AM 37.5603 -122.2000 284° West 176 203 2,700 -780 Descending FlightAware ADS-B
03:10AM 37.5635 -122.2160 284° West 173 199 2,500 -780 Descending FlightAware ADS-B
03:10AM 37.5666 -122.2320 284° West 170 196 2,300 -720 Descending FlightAware ADS-B
03:10AM 37.5682 -122.2400 284° West 165 190 2,200 -900 Descending FlightAware ADS-B
03:10AM 37.5704 -122.2520 283° West 163 188 2,000 -1,080 Descending FlightAware ADS-B
03:10AM 37.5711 -122.2550 286° West 163 188 1,900 -900 Descending FlightAware ADS-B
03:10AM 37.5719 -122.2580 289° West 163 188 1,900 -900 Level FlightAware ADS-B
03:10AM 37.5732 -122.2620 292° West 164 189 1,800 -780 Descending FlightAware ADS-B
03:10AM 37.5744 -122.2650 297° West 165 190 1,800 -1,140 Level FlightAware ADS-B
03:11AM 37.5787 -122.2750 298° West 166 191 1,500 -1,140 Descending FlightAware ADS-B
03:11AM 37.5843 -122.2880 299° West 167 192 1,300 -840 Descending FlightAware ADS-B
03:11AM 37.5897 -122.3010 298° West 160 184 1,100 -1,020 Descending FlightAware ADS-B
03:11AM 37.5951 -122.3130 300° West 156 180 800 -960 Descending FlightAware ADS-B
03:12AM 37.6003 -122.3260 297° West 152 175 600 -780 Descending FlightAware ADS-B
03:12AM 37.6055 -122.3380 299° West 148 170 400 -960 Descending FlightAware ADS-B
03:12AM 37.6084 -122.3450 298° West 146 168 200 -900 Descending FlightAware ADS-B
03:12AM 37.6118 -122.3530 298° West 144 166 100 -600 Descending FlightAware ADS-B
03:13AM 37.6200 -122.3720 299° West 82 94 -240 Descending FlightAware
03:13AM 37.6240 -122.3820 297° West 82 94  Level FlightAware